LLBG

Ben Gurion International Airport

Tel Aviv, Israel
METAR LLBG 160920Z 18014KT 9999 -RA SCT035 18/14 Q1018 TEMPO 5000 TSRA FEW020CB BKN030 RMK BKN065
Observed Flight Rules
Nov-16 @ 09:20 UTC (30 minutes ago) Visual Flight Rules
Wind Visibility Clouds Conditions
180° at 14 knots 10,000+ meters
  • Scattered at 3,500' AGL
  • Light Rain
Temperatures Readings
Current 18°C / 64°F
Dewpoint 14°C / 57°F
Humidity 78%
Altimeter 30.06" Hg
Pressure 1018 hPa
Elevation 49
METAR LLBG 160920Z 18014KT 9999 -RA SCT035 18/14 Q1018 TEMPO 5000 TSRA FEW020CB BKN030 RMK BKN065
Observed Flight Rules
Nov-16 @ 09:20 UTC
(30 minutes ago)
VFR
Wind Visibility
180° at 14 knots 10,000+ meters
Clouds
  • Scattered at 3,500' AGL
Conditions
  • Light Rain
Temperature Dewpoint
18°C / 64°F 14°C / 57°F
Humidity Altimeter Pressure
78% 30.06" Hg 1018 hPa